sensor_id;sensor_type;location;lat;lon;timestamp;P1;durP1;ratioP1;P2;durP2;ratioP2
54835;SDS011;43486;43.574;1.476;2023-12-20T00:01:01;7.53;;;4.43;;
54835;SDS011;43486;43.574;1.476;2023-12-20T00:03:26;8.75;;;5.85;;
54835;SDS011;43486;43.574;1.476;2023-12-20T00:05:51;6.93;;;3.95;;
54835;SDS011;43486;43.574;1.476;2023-12-20T00:08:17;6.75;;;5.30;;
54835;SDS011;43486;43.574;1.476;2023-12-20T00:10:43;8.90;;;5.40;;
54835;SDS011;43486;43.574;1.476;2023-12-20T00:13:08;7.32;;;5.03;;
54835;SDS011;43486;43.574;1.476;2023-12-20T00:15:34;6.60;;;4.50;;
54835;SDS011;43486;43.574;1.476;2023-12-20T00:17:59;6.13;;;4.10;;
54835;SDS011;43486;43.574;1.476;2023-12-20T00:20:26;6.40;;;3.65;;
54835;SDS011;43486;43.574;1.476;2023-12-20T00:22:51;7.18;;;4.65;;
54835;SDS011;43486;43.574;1.476;2023-12-20T00:25:17;7.35;;;4.30;;
54835;SDS011;43486;43.574;1.476;2023-12-20T00:27:42;7.57;;;4.72;;
54835;SDS011;43486;43.574;1.476;2023-12-20T00:30:08;6.32;;;3.65;;
54835;SDS011;43486;43.574;1.476;2023-12-20T00:32:34;8.20;;;4.55;;
54835;SDS011;43486;43.574;1.476;2023-12-20T00:35:01;7.70;;;5.03;;
54835;SDS011;43486;43.574;1.476;2023-12-20T00:37:26;9.02;;;4.88;;
54835;SDS011;43486;43.574;1.476;2023-12-20T00:39:51;9.50;;;4.20;;
54835;SDS011;43486;43.574;1.476;2023-12-20T00:42:17;10.48;;;4.43;;
54835;SDS011;43486;43.574;1.476;2023-12-20T00:44:42;6.47;;;4.30;;
54835;SDS011;43486;43.574;1.476;2023-12-20T00:47:07;9.70;;;3.97;;
54835;SDS011;43486;43.574;1.476;2023-12-20T00:49:33;11.18;;;5.40;;
54835;SDS011;43486;43.574;1.476;2023-12-20T00:51:58;7.47;;;4.55;;
54835;SDS011;43486;43.574;1.476;2023-12-20T00:54:23;6.85;;;4.13;;
54835;SDS011;43486;43.574;1.476;2023-12-20T00:56:49;7.18;;;4.10;;
54835;SDS011;43486;43.574;1.476;2023-12-20T00:59:14;6.57;;;3.78;;
54835;SDS011;43486;43.574;1.476;2023-12-20T01:01:41;6.10;;;4.05;;
54835;SDS011;43486;43.574;1.476;2023-12-20T01:04:07;8.85;;;4.88;;
54835;SDS011;43486;43.574;1.476;2023-12-20T01:06:33;7.18;;;3.83;;
54835;SDS011;43486;43.574;1.476;2023-12-20T01:08:58;7.32;;;4.00;;
54835;SDS011;43486;43.574;1.476;2023-12-20T01:11:24;8.27;;;4.22;;
54835;SDS011;43486;43.574;1.476;2023-12-20T01:13:49;6.80;;;4.28;;
54835;SDS011;43486;43.574;1.476;2023-12-20T01:16:14;8.13;;;4.93;;
54835;SDS011;43486;43.574;1.476;2023-12-20T01:18:40;6.63;;;4.07;;
54835;SDS011;43486;43.574;1.476;2023-12-20T01:21:06;5.88;;;3.83;;
54835;SDS011;43486;43.574;1.476;2023-12-20T01:23:31;7.88;;;3.80;;
54835;SDS011;43486;43.574;1.476;2023-12-20T01:25:58;9.88;;;4.22;;
54835;SDS011;43486;43.574;1.476;2023-12-20T01:28:27;6.82;;;4.40;;
54835;SDS011;43486;43.574;1.476;2023-12-20T01:30:53;6.55;;;3.58;;
54835;SDS011;43486;43.574;1.476;2023-12-20T01:33:18;6.38;;;3.50;;
54835;SDS011;43486;43.574;1.476;2023-12-20T01:35:43;7.45;;;4.15;;
54835;SDS011;43486;43.574;1.476;2023-12-20T01:38:09;11.57;;;3.80;;
54835;SDS011;43486;43.574;1.476;2023-12-20T01:40:34;6.50;;;3.70;;
54835;SDS011;43486;43.574;1.476;2023-12-20T01:43:09;6.10;;;3.38;;
54835;SDS011;43486;43.574;1.476;2023-12-20T01:45:35;8.80;;;4.90;;
54835;SDS011;43486;43.574;1.476;2023-12-20T01:48:00;5.95;;;3.30;;
54835;SDS011;43486;43.574;1.476;2023-12-20T01:50:28;9.75;;;4.47;;
54835;SDS011;43486;43.574;1.476;2023-12-20T01:52:53;6.38;;;3.97;;
54835;SDS011;43486;43.574;1.476;2023-12-20T01:55:22;6.35;;;3.00;;
54835;SDS011;43486;43.574;1.476;2023-12-20T01:57:48;5.10;;;3.60;;
54835;SDS011;43486;43.574;1.476;2023-12-20T02:00:14;8.02;;;4.70;;
54835;SDS011;43486;43.574;1.476;2023-12-20T02:02:40;6.93;;;4.05;;
54835;SDS011;43486;43.574;1.476;2023-12-20T02:05:06;5.43;;;3.55;;
54835;SDS011;43486;43.574;1.476;2023-12-20T02:07:32;7.20;;;4.30;;
54835;SDS011;43486;43.574;1.476;2023-12-20T02:09:58;5.47;;;3.13;;
54835;SDS011;43486;43.574;1.476;2023-12-20T02:12:23;6.70;;;3.33;;
54835;SDS011;43486;43.574;1.476;2023-12-20T02:14:48;6.78;;;3.80;;
54835;SDS011;43486;43.574;1.476;2023-12-20T02:17:15;6.15;;;3.83;;
54835;SDS011;43486;43.574;1.476;2023-12-20T02:19:40;5.35;;;2.92;;
54835;SDS011;43486;43.574;1.476;2023-12-20T02:22:12;7.43;;;3.80;;
54835;SDS011;43486;43.574;1.476;2023-12-20T02:24:38;6.03;;;4.07;;
54835;SDS011;43486;43.574;1.476;2023-12-20T02:27:04;5.88;;;3.50;;
54835;SDS011;43486;43.574;1.476;2023-12-20T02:29:31;6.35;;;3.60;;
54835;SDS011;43486;43.574;1.476;2023-12-20T02:31:57;12.60;;;3.13;;
54835;SDS011;43486;43.574;1.476;2023-12-20T02:34:23;6.93;;;4.07;;
54835;SDS011;43486;43.574;1.476;2023-12-20T02:36:48;5.93;;;3.40;;
54835;SDS011;43486;43.574;1.476;2023-12-20T02:39:14;5.93;;;3.60;;
54835;SDS011;43486;43.574;1.476;2023-12-20T02:41:39;5.60;;;3.45;;
54835;SDS011;43486;43.574;1.476;2023-12-20T02:44:04;7.43;;;4.60;;
54835;SDS011;43486;43.574;1.476;2023-12-20T02:46:30;6.22;;;3.42;;
54835;SDS011;43486;43.574;1.476;2023-12-20T02:48:55;5.38;;;3.00;;
54835;SDS011;43486;43.574;1.476;2023-12-20T02:51:21;5.53;;;3.42;;
54835;SDS011;43486;43.574;1.476;2023-12-20T02:53:46;4.68;;;2.63;;
54835;SDS011;43486;43.574;1.476;2023-12-20T02:56:11;5.65;;;3.47;;
54835;SDS011;43486;43.574;1.476;2023-12-20T02:58:37;7.28;;;3.10;;
54835;SDS011;43486;43.574;1.476;2023-12-20T03:01:02;4.30;;;2.78;;
54835;SDS011;43486;43.574;1.476;2023-12-20T03:03:28;7.95;;;4.00;;
54835;SDS011;43486;43.574;1.476;2023-12-20T03:05:53;4.93;;;2.95;;
54835;SDS011;43486;43.574;1.476;2023-12-20T03:08:18;5.50;;;2.90;;
54835;SDS011;43486;43.574;1.476;2023-12-20T03:10:44;5.40;;;3.60;;
54835;SDS011;43486;43.574;1.476;2023-12-20T03:13:09;5.40;;;3.33;;
54835;SDS011;43486;43.574;1.476;2023-12-20T03:15:35;6.15;;;3.47;;
54835;SDS011;43486;43.574;1.476;2023-12-20T03:18:00;5.88;;;3.67;;
54835;SDS011;43486;43.574;1.476;2023-12-20T03:20:26;7.40;;;3.90;;
54835;SDS011;43486;43.574;1.476;2023-12-20T03:22:51;4.72;;;2.72;;
54835;SDS011;43486;43.574;1.476;2023-12-20T03:25:16;6.85;;;3.53;;
54835;SDS011;43486;43.574;1.476;2023-12-20T03:27:42;7.07;;;4.20;;
54835;SDS011;43486;43.574;1.476;2023-12-20T03:30:07;8.73;;;3.38;;
54835;SDS011;43486;43.574;1.476;2023-12-20T03:32:33;5.07;;;2.58;;
54835;SDS011;43486;43.574;1.476;2023-12-20T03:34:58;5.47;;;3.20;;
54835;SDS011;43486;43.574;1.476;2023-12-20T03:37:24;6.88;;;3.45;;
54835;SDS011;43486;43.574;1.476;2023-12-20T03:39:49;6.45;;;3.33;;
54835;SDS011;43486;43.574;1.476;2023-12-20T03:42:14;7.25;;;3.35;;
54835;SDS011;43486;43.574;1.476;2023-12-20T03:44:40;5.90;;;3.30;;
54835;SDS011;43486;43.574;1.476;2023-12-20T03:47:06;5.25;;;3.05;;
54835;SDS011;43486;43.574;1.476;2023-12-20T03:49:31;7.68;;;3.15;;
54835;SDS011;43486;43.574;1.476;2023-12-20T03:51:57;4.63;;;2.88;;
54835;SDS011;43486;43.574;1.476;2023-12-20T03:54:22;4.15;;;2.50;;
54835;SDS011;43486;43.574;1.476;2023-12-20T03:56:47;6.80;;;3.00;;
54835;SDS011;43486;43.574;1.476;2023-12-20T03:59:13;6.28;;;3.20;;
54835;SDS011;43486;43.574;1.476;2023-12-20T04:01:40;6.90;;;3.83;;
54835;SDS011;43486;43.574;1.476;2023-12-20T04:04:08;5.95;;;3.28;;
54835;SDS011;43486;43.574;1.476;2023-12-20T04:06:33;6.97;;;4.38;;
54835;SDS011;43486;43.574;1.476;2023-12-20T04:08:59;6.75;;;3.63;;
54835;SDS011;43486;43.574;1.476;2023-12-20T04:11:24;5.18;;;3.08;;
54835;SDS011;43486;43.574;1.476;2023-12-20T04:13:50;6.45;;;2.92;;
54835;SDS011;43486;43.574;1.476;2023-12-20T04:16:15;5.88;;;3.63;;
54835;SDS011;43486;43.574;1.476;2023-12-20T04:18:41;5.18;;;2.92;;
54835;SDS011;43486;43.574;1.476;2023-12-20T04:21:06;5.13;;;3.33;;
54835;SDS011;43486;43.574;1.476;2023-12-20T04:23:32;5.53;;;3.13;;
54835;SDS011;43486;43.574;1.476;2023-12-20T04:25:57;5.07;;;2.88;;
54835;SDS011;43486;43.574;1.476;2023-12-20T04:28:23;4.97;;;3.25;;
54835;SDS011;43486;43.574;1.476;2023-12-20T04:30:48;5.72;;;2.88;;
54835;SDS011;43486;43.574;1.476;2023-12-20T04:33:14;6.57;;;3.00;;
54835;SDS011;43486;43.574;1.476;2023-12-20T04:35:39;4.63;;;2.53;;
54835;SDS011;43486;43.574;1.476;2023-12-20T04:38:06;5.35;;;2.72;;
54835;SDS011;43486;43.574;1.476;2023-12-20T04:40:31;6.30;;;2.92;;
54835;SDS011;43486;43.574;1.476;2023-12-20T04:42:56;6.28;;;3.35;;
54835;SDS011;43486;43.574;1.476;2023-12-20T04:45:22;6.05;;;2.78;;
54835;SDS011;43486;43.574;1.476;2023-12-20T04:47:48;4.55;;;2.35;;
54835;SDS011;43486;43.574;1.476;2023-12-20T04:50:14;5.18;;;3.03;;
54835;SDS011;43486;43.574;1.476;2023-12-20T04:52:39;6.03;;;3.20;;
54835;SDS011;43486;43.574;1.476;2023-12-20T04:55:05;5.18;;;2.42;;
54835;SDS011;43486;43.574;1.476;2023-12-20T04:57:30;5.30;;;2.90;;
54835;SDS011;43486;43.574;1.476;2023-12-20T04:59:56;5.50;;;3.08;;
54835;SDS011;43486;43.574;1.476;2023-12-20T05:02:21;6.95;;;3.05;;
54835;SDS011;43486;43.574;1.476;2023-12-20T05:04:47;4.45;;;2.25;;
54835;SDS011;43486;43.574;1.476;2023-12-20T05:07:12;5.00;;;2.42;;
54835;SDS011;43486;43.574;1.476;2023-12-20T05:09:38;4.07;;;2.10;;
54835;SDS011;43486;43.574;1.476;2023-12-20T05:12:03;5.47;;;2.75;;
54835;SDS011;43486;43.574;1.476;2023-12-20T05:14:28;10.90;;;3.25;;
54835;SDS011;43486;43.574;1.476;2023-12-20T05:16:54;6.35;;;3.10;;
54835;SDS011;43486;43.574;1.476;2023-12-20T05:19:19;5.55;;;3.40;;
54835;SDS011;43486;43.574;1.476;2023-12-20T05:21:45;4.50;;;2.85;;
54835;SDS011;43486;43.574;1.476;2023-12-20T05:24:10;4.45;;;2.30;;
54835;SDS011;43486;43.574;1.476;2023-12-20T05:26:35;5.03;;;2.80;;
54835;SDS011;43486;43.574;1.476;2023-12-20T05:29:01;4.55;;;2.90;;
54835;SDS011;43486;43.574;1.476;2023-12-20T05:31:26;4.93;;;2.80;;
54835;SDS011;43486;43.574;1.476;2023-12-20T05:33:52;7.95;;;2.90;;
54835;SDS011;43486;43.574;1.476;2023-12-20T05:36:17;3.78;;;2.55;;
54835;SDS011;43486;43.574;1.476;2023-12-20T05:38:43;5.22;;;2.55;;
54835;SDS011;43486;43.574;1.476;2023-12-20T05:41:08;3.90;;;2.20;;
54835;SDS011;43486;43.574;1.476;2023-12-20T05:43:34;3.45;;;1.98;;
54835;SDS011;43486;43.574;1.476;2023-12-20T05:45:59;3.47;;;1.90;;
54835;SDS011;43486;43.574;1.476;2023-12-20T05:48:24;5.03;;;2.63;;
54835;SDS011;43486;43.574;1.476;2023-12-20T05:50:50;3.47;;;2.30;;
54835;SDS011;43486;43.574;1.476;2023-12-20T05:53:15;5.05;;;2.65;;
54835;SDS011;43486;43.574;1.476;2023-12-20T05:55:41;2.90;;;2.05;;
54835;SDS011;43486;43.574;1.476;2023-12-20T05:58:06;5.28;;;2.65;;
54835;SDS011;43486;43.574;1.476;2023-12-20T06:00:31;4.68;;;2.53;;
54835;SDS011;43486;43.574;1.476;2023-12-20T06:02:57;5.20;;;2.40;;
54835;SDS011;43486;43.574;1.476;2023-12-20T06:05:22;4.75;;;2.70;;
54835;SDS011;43486;43.574;1.476;2023-12-20T06:07:47;4.00;;;2.25;;
54835;SDS011;43486;43.574;1.476;2023-12-20T06:10:13;4.55;;;3.15;;
54835;SDS011;43486;43.574;1.476;2023-12-20T06:12:39;6.70;;;2.55;;
54835;SDS011;43486;43.574;1.476;2023-12-20T06:15:04;4.70;;;2.60;;
54835;SDS011;43486;43.574;1.476;2023-12-20T06:17:30;4.45;;;2.22;;
54835;SDS011;43486;43.574;1.476;2023-12-20T06:19:56;5.43;;;2.78;;
54835;SDS011;43486;43.574;1.476;2023-12-20T06:22:22;3.35;;;2.13;;
54835;SDS011;43486;43.574;1.476;2023-12-20T06:24:47;3.78;;;2.58;;
54835;SDS011;43486;43.574;1.476;2023-12-20T06:27:12;4.32;;;2.40;;
54835;SDS011;43486;43.574;1.476;2023-12-20T06:29:38;4.13;;;2.30;;
54835;SDS011;43486;43.574;1.476;2023-12-20T06:32:03;3.20;;;2.03;;
54835;SDS011;43486;43.574;1.476;2023-12-20T06:34:29;4.72;;;2.40;;
54835;SDS011;43486;43.574;1.476;2023-12-20T06:36:54;4.65;;;2.20;;
54835;SDS011;43486;43.574;1.476;2023-12-20T06:39:20;4.78;;;2.67;;
54835;SDS011;43486;43.574;1.476;2023-12-20T06:41:45;3.38;;;2.00;;
54835;SDS011;43486;43.574;1.476;2023-12-20T06:44:11;4.25;;;2.28;;
54835;SDS011;43486;43.574;1.476;2023-12-20T06:46:36;4.68;;;2.25;;
54835;SDS011;43486;43.574;1.476;2023-12-20T06:49:01;6.03;;;3.30;;
54835;SDS011;43486;43.574;1.476;2023-12-20T06:51:27;4.30;;;2.20;;
54835;SDS011;43486;43.574;1.476;2023-12-20T06:53:53;3.70;;;2.20;;
54835;SDS011;43486;43.574;1.476;2023-12-20T06:56:18;3.03;;;1.92;;
54835;SDS011;43486;43.574;1.476;2023-12-20T06:58:44;3.60;;;1.90;;
54835;SDS011;43486;43.574;1.476;2023-12-20T07:01:13;3.97;;;2.05;;
54835;SDS011;43486;43.574;1.476;2023-12-20T07:03:40;2.65;;;1.73;;
54835;SDS011;43486;43.574;1.476;2023-12-20T07:06:06;2.65;;;1.63;;
54835;SDS011;43486;43.574;1.476;2023-12-20T07:08:31;4.72;;;2.17;;
54835;SDS011;43486;43.574;1.476;2023-12-20T07:10:56;4.88;;;2.47;;
54835;SDS011;43486;43.574;1.476;2023-12-20T07:13:22;4.43;;;2.20;;
54835;SDS011;43486;43.574;1.476;2023-12-20T07:15:48;2.10;;;1.40;;
54835;SDS011;43486;43.574;1.476;2023-12-20T07:18:13;2.33;;;1.52;;
54835;SDS011;43486;43.574;1.476;2023-12-20T07:20:39;4.78;;;2.47;;
54835;SDS011;43486;43.574;1.476;2023-12-20T07:23:04;3.90;;;1.90;;
54835;SDS011;43486;43.574;1.476;2023-12-20T07:25:29;3.38;;;2.13;;
54835;SDS011;43486;43.574;1.476;2023-12-20T07:27:57;4.38;;;2.30;;
54835;SDS011;43486;43.574;1.476;2023-12-20T07:30:23;3.20;;;1.75;;
54835;SDS011;43486;43.574;1.476;2023-12-20T07:32:48;4.32;;;1.95;;
54835;SDS011;43486;43.574;1.476;2023-12-20T07:35:14;2.78;;;1.77;;
54835;SDS011;43486;43.574;1.476;2023-12-20T07:37:40;3.13;;;2.00;;
54835;SDS011;43486;43.574;1.476;2023-12-20T07:40:06;4.18;;;1.77;;
54835;SDS011;43486;43.574;1.476;2023-12-20T07:42:32;3.28;;;2.00;;
54835;SDS011;43486;43.574;1.476;2023-12-20T07:44:57;4.63;;;2.22;;
54835;SDS011;43486;43.574;1.476;2023-12-20T07:47:23;4.82;;;1.90;;
54835;SDS011;43486;43.574;1.476;2023-12-20T07:49:50;3.47;;;1.75;;
54835;SDS011;43486;43.574;1.476;2023-12-20T07:52:19;2.97;;;1.50;;
54835;SDS011;43486;43.574;1.476;2023-12-20T07:54:45;2.40;;;1.50;;
54835;SDS011;43486;43.574;1.476;2023-12-20T07:57:11;2.65;;;1.85;;
54835;SDS011;43486;43.574;1.476;2023-12-20T07:59:36;2.75;;;1.60;;
54835;SDS011;43486;43.574;1.476;2023-12-20T08:02:02;4.15;;;1.95;;
54835;SDS011;43486;43.574;1.476;2023-12-20T08:04:27;2.22;;;1.75;;
54835;SDS011;43486;43.574;1.476;2023-12-20T08:06:52;1.63;;;1.20;;
54835;SDS011;43486;43.574;1.476;2023-12-20T08:09:18;2.95;;;2.05;;
54835;SDS011;43486;43.574;1.476;2023-12-20T08:11:45;4.72;;;1.65;;
54835;SDS011;43486;43.574;1.476;2023-12-20T08:14:13;3.55;;;1.90;;
54835;SDS011;43486;43.574;1.476;2023-12-20T08:16:39;3.67;;;1.92;;
54835;SDS011;43486;43.574;1.476;2023-12-20T08:19:04;5.22;;;1.63;;
54835;SDS011;43486;43.574;1.476;2023-12-20T08:21:29;3.53;;;1.80;;
54835;SDS011;43486;43.574;1.476;2023-12-20T08:23:55;2.42;;;1.52;;
54835;SDS011;43486;43.574;1.476;2023-12-20T08:26:20;6.05;;;2.47;;
54835;SDS011;43486;43.574;1.476;2023-12-20T08:28:47;2.28;;;1.60;;
54835;SDS011;43486;43.574;1.476;2023-12-20T08:31:13;2.38;;;1.45;;
54835;SDS011;43486;43.574;1.476;2023-12-20T08:33:40;3.97;;;2.03;;
54835;SDS011;43486;43.574;1.476;2023-12-20T08:36:05;2.83;;;1.52;;
54835;SDS011;43486;43.574;1.476;2023-12-20T08:38:31;2.03;;;1.35;;
54835;SDS011;43486;43.574;1.476;2023-12-20T08:40:56;3.15;;;1.90;;
54835;SDS011;43486;43.574;1.476;2023-12-20T08:43:21;2.78;;;1.50;;
54835;SDS011;43486;43.574;1.476;2023-12-20T08:45:47;5.07;;;1.80;;
54835;SDS011;43486;43.574;1.476;2023-12-20T08:48:12;3.83;;;1.55;;
54835;SDS011;43486;43.574;1.476;2023-12-20T08:50:38;6.93;;;2.28;;
54835;SDS011;43486;43.574;1.476;2023-12-20T08:53:04;11.13;;;1.27;;
54835;SDS011;43486;43.574;1.476;2023-12-20T08:55:29;3.15;;;1.77;;
54835;SDS011;43486;43.574;1.476;2023-12-20T08:57:56;3.05;;;1.73;;
54835;SDS011;43486;43.574;1.476;2023-12-20T09:00:21;3.22;;;1.58;;
54835;SDS011;43486;43.574;1.476;2023-12-20T09:02:49;2.83;;;1.60;;
54835;SDS011;43486;43.574;1.476;2023-12-20T09:05:14;2.35;;;1.60;;
54835;SDS011;43486;43.574;1.476;2023-12-20T09:07:40;3.15;;;1.60;;
54835;SDS011;43486;43.574;1.476;2023-12-20T09:10:05;2.75;;;1.48;;
54835;SDS011;43486;43.574;1.476;2023-12-20T09:12:31;3.53;;;1.65;;
54835;SDS011;43486;43.574;1.476;2023-12-20T09:14:56;1.25;;;0.98;;
54835;SDS011;43486;43.574;1.476;2023-12-20T09:17:22;1.90;;;1.45;;
54835;SDS011;43486;43.574;1.476;2023-12-20T09:19:48;2.55;;;1.60;;
54835;SDS011;43486;43.574;1.476;2023-12-20T09:22:13;3.40;;;1.73;;
54835;SDS011;43486;43.574;1.476;2023-12-20T09:24:39;1.92;;;1.33;;
54835;SDS011;43486;43.574;1.476;2023-12-20T09:27:07;3.88;;;1.55;;
54835;SDS011;43486;43.574;1.476;2023-12-20T09:29:33;4.25;;;1.52;;
54835;SDS011;43486;43.574;1.476;2023-12-20T09:31:58;2.53;;;1.55;;
54835;SDS011;43486;43.574;1.476;2023-12-20T09:34:23;3.00;;;1.80;;
54835;SDS011;43486;43.574;1.476;2023-12-20T09:36:50;3.00;;;1.40;;
54835;SDS011;43486;43.574;1.476;2023-12-20T09:39:17;3.65;;;1.92;;
54835;SDS011;43486;43.574;1.476;2023-12-20T09:42:07;2.53;;;1.50;;
54835;SDS011;43486;43.574;1.476;2023-12-20T09:44:32;2.40;;;1.60;;
54835;SDS011;43486;43.574;1.476;2023-12-20T09:46:59;2.65;;;1.70;;
54835;SDS011;43486;43.574;1.476;2023-12-20T09:49:27;3.03;;;1.60;;
54835;SDS011;43486;43.574;1.476;2023-12-20T09:51:53;2.40;;;1.42;;
54835;SDS011;43486;43.574;1.476;2023-12-20T09:54:20;3.80;;;1.77;;
54835;SDS011;43486;43.574;1.476;2023-12-20T09:56:45;6.15;;;1.67;;
54835;SDS011;43486;43.574;1.476;2023-12-20T09:59:11;1.40;;;1.10;;
54835;SDS011;43486;43.574;1.476;2023-12-20T10:01:38;7.63;;;1.67;;
54835;SDS011;43486;43.574;1.476;2023-12-20T10:04:05;2.60;;;1.60;;
54835;SDS011;43486;43.574;1.476;2023-12-20T10:06:35;2.35;;;1.50;;
54835;SDS011;43486;43.574;1.476;2023-12-20T10:09:01;3.72;;;1.92;;
54835;SDS011;43486;43.574;1.476;2023-12-20T10:11:27;1.88;;;1.42;;
54835;SDS011;43486;43.574;1.476;2023-12-20T10:13:58;2.60;;;1.60;;
54835;SDS011;43486;43.574;1.476;2023-12-20T10:16:24;2.60;;;1.50;;
54835;SDS011;43486;43.574;1.476;2023-12-20T10:18:50;2.58;;;1.40;;
54835;SDS011;43486;43.574;1.476;2023-12-20T10:21:18;2.83;;;1.50;;
54835;SDS011;43486;43.574;1.476;2023-12-20T10:23:43;1.92;;;1.23;;
54835;SDS011;43486;43.574;1.476;2023-12-20T10:26:08;2.13;;;1.20;;
54835;SDS011;43486;43.574;1.476;2023-12-20T10:28:34;3.20;;;1.63;;
54835;SDS011;43486;43.574;1.476;2023-12-20T10:31:00;2.10;;;1.30;;
54835;SDS011;43486;43.574;1.476;2023-12-20T10:33:26;1.38;;;0.95;;
54835;SDS011;43486;43.574;1.476;2023-12-20T10:35:53;2.53;;;1.20;;
54835;SDS011;43486;43.574;1.476;2023-12-20T10:38:19;2.85;;;1.52;;
54835;SDS011;43486;43.574;1.476;2023-12-20T10:40:45;1.52;;;1.23;;
54835;SDS011;43486;43.574;1.476;2023-12-20T10:43:11;3.67;;;1.60;;
54835;SDS011;43486;43.574;1.476;2023-12-20T10:45:36;1.48;;;1.10;;
54835;SDS011;43486;43.574;1.476;2023-12-20T10:48:02;2.17;;;1.20;;
54835;SDS011;43486;43.574;1.476;2023-12-20T10:50:28;3.38;;;1.55;;
54835;SDS011;43486;43.574;1.476;2023-12-20T10:52:54;2.03;;;1.27;;
54835;SDS011;43486;43.574;1.476;2023-12-20T10:55:24;2.95;;;1.38;;
54835;SDS011;43486;43.574;1.476;2023-12-20T10:57:50;4.45;;;1.60;;
54835;SDS011;43486;43.574;1.476;2023-12-20T11:00:17;1.90;;;1.42;;
54835;SDS011;43486;43.574;1.476;2023-12-20T11:02:43;3.22;;;1.58;;
54835;SDS011;43486;43.574;1.476;2023-12-20T11:08:09;2.00;;;1.42;;
54835;SDS011;43486;43.574;1.476;2023-12-20T11:13:16;1.50;;;1.00;;
54835;SDS011;43486;43.574;1.476;2023-12-20T11:15:44;4.20;;;1.95;;
54835;SDS011;43486;43.574;1.476;2023-12-20T11:18:10;1.80;;;1.02;;
54835;SDS011;43486;43.574;1.476;2023-12-20T11:20:36;1.80;;;1.08;;
54835;SDS011;43486;43.574;1.476;2023-12-20T11:23:03;0.80;;;0.80;;
54835;SDS011;43486;43.574;1.476;2023-12-20T11:25:28;3.50;;;1.65;;
54835;SDS011;43486;43.574;1.476;2023-12-20T11:28:07;1.63;;;1.23;;
54835;SDS011;43486;43.574;1.476;2023-12-20T11:30:46;1.00;;;0.90;;
54835;SDS011;43486;43.574;1.476;2023-12-20T11:33:15;2.67;;;1.20;;
54835;SDS011;43486;43.574;1.476;2023-12-20T11:35:41;2.20;;;1.35;;
54835;SDS011;43486;43.574;1.476;2023-12-20T11:38:07;2.90;;;1.45;;
54835;SDS011;43486;43.574;1.476;2023-12-20T11:40:34;2.28;;;1.38;;
54835;SDS011;43486;43.574;1.476;2023-12-20T11:43:00;2.50;;;1.42;;
54835;SDS011;43486;43.574;1.476;2023-12-20T11:45:25;2.78;;;1.60;;
54835;SDS011;43486;43.574;1.476;2023-12-20T11:47:52;2.55;;;1.15;;
54835;SDS011;43486;43.574;1.476;2023-12-20T11:50:20;1.00;;;0.90;;
54835;SDS011;43486;43.574;1.476;2023-12-20T11:52:47;1.98;;;1.20;;
54835;SDS011;43486;43.574;1.476;2023-12-20T11:55:13;2.65;;;1.33;;
54835;SDS011;43486;43.574;1.476;2023-12-20T11:57:38;2.03;;;1.20;;
54835;SDS011;43486;43.574;1.476;2023-12-20T12:00:04;2.05;;;1.27;;
54835;SDS011;43486;43.574;1.476;2023-12-20T12:02:31;2.60;;;1.15;;
54835;SDS011;43486;43.574;1.476;2023-12-20T12:04:56;2.22;;;1.33;;
54835;SDS011;43486;43.574;1.476;2023-12-20T12:07:23;1.38;;;1.00;;
54835;SDS011;43486;43.574;1.476;2023-12-20T12:09:49;1.90;;;1.15;;
54835;SDS011;43486;43.574;1.476;2023-12-20T12:12:14;2.10;;;1.30;;
54835;SDS011;43486;43.574;1.476;2023-12-20T12:14:40;1.77;;;0.93;;
54835;SDS011;43486;43.574;1.476;2023-12-20T12:17:14;1.60;;;1.25;;
54835;SDS011;43486;43.574;1.476;2023-12-20T12:19:40;1.52;;;1.05;;
54835;SDS011;43486;43.574;1.476;2023-12-20T12:24:34;1.85;;;1.02;;
54835;SDS011;43486;43.574;1.476;2023-12-20T12:26:59;2.08;;;1.10;;
54835;SDS011;43486;43.574;1.476;2023-12-20T12:29:25;1.25;;;1.10;;
54835;SDS011;43486;43.574;1.476;2023-12-20T12:31:50;1.88;;;1.13;;
54835;SDS011;43486;43.574;1.476;2023-12-20T12:34:16;3.35;;;1.42;;
54835;SDS011;43486;43.574;1.476;2023-12-20T12:36:42;0.98;;;0.90;;
54835;SDS011;43486;43.574;1.476;2023-12-20T12:39:08;2.17;;;1.27;;
54835;SDS011;43486;43.574;1.476;2023-12-20T12:41:33;1.75;;;1.20;;
54835;SDS011;43486;43.574;1.476;2023-12-20T12:43:59;1.50;;;1.08;;
54835;SDS011;43486;43.574;1.476;2023-12-20T12:46:24;2.15;;;1.27;;
54835;SDS011;43486;43.574;1.476;2023-12-20T12:48:49;1.80;;;1.05;;
54835;SDS011;43486;43.574;1.476;2023-12-20T12:51:15;3.05;;;1.23;;
54835;SDS011;43486;43.574;1.476;2023-12-20T12:53:41;1.80;;;1.08;;
54835;SDS011;43486;43.574;1.476;2023-12-20T12:56:06;2.40;;;1.23;;
54835;SDS011;43486;43.574;1.476;2023-12-20T12:58:32;0.85;;;0.82;;
54835;SDS011;43486;43.574;1.476;2023-12-20T13:00:58;2.15;;;1.48;;
54835;SDS011;43486;43.574;1.476;2023-12-20T13:03:23;2.15;;;1.40;;
54835;SDS011;43486;43.574;1.476;2023-12-20T13:05:49;2.33;;;1.63;;
54835;SDS011;43486;43.574;1.476;2023-12-20T13:08:15;2.75;;;1.77;;
54835;SDS011;43486;43.574;1.476;2023-12-20T13:10:40;3.22;;;1.45;;
54835;SDS011;43486;43.574;1.476;2023-12-20T13:13:05;4.10;;;1.70;;
54835;SDS011;43486;43.574;1.476;2023-12-20T13:15:31;2.78;;;1.55;;
54835;SDS011;43486;43.574;1.476;2023-12-20T13:17:56;1.75;;;1.33;;
54835;SDS011;43486;43.574;1.476;2023-12-20T13:20:22;1.05;;;0.90;;
54835;SDS011;43486;43.574;1.476;2023-12-20T13:22:47;1.27;;;1.13;;
54835;SDS011;43486;43.574;1.476;2023-12-20T13:25:13;1.98;;;1.27;;
54835;SDS011;43486;43.574;1.476;2023-12-20T13:27:38;2.35;;;1.40;;
54835;SDS011;43486;43.574;1.476;2023-12-20T13:30:04;1.58;;;1.30;;
54835;SDS011;43486;43.574;1.476;2023-12-20T13:32:30;1.08;;;0.90;;
54835;SDS011;43486;43.574;1.476;2023-12-20T13:34:56;1.38;;;1.15;;
54835;SDS011;43486;43.574;1.476;2023-12-20T13:37:21;1.60;;;1.20;;
54835;SDS011;43486;43.574;1.476;2023-12-20T13:39:47;3.38;;;1.10;;
54835;SDS011;43486;43.574;1.476;2023-12-20T13:42:13;1.60;;;1.00;;
54835;SDS011;43486;43.574;1.476;2023-12-20T13:44:38;1.80;;;1.08;;
54835;SDS011;43486;43.574;1.476;2023-12-20T13:47:03;2.38;;;1.08;;
54835;SDS011;43486;43.574;1.476;2023-12-20T13:49:29;1.00;;;0.90;;
54835;SDS011;43486;43.574;1.476;2023-12-20T13:51:54;2.38;;;1.27;;
54835;SDS011;43486;43.574;1.476;2023-12-20T13:54:20;1.50;;;1.20;;
54835;SDS011;43486;43.574;1.476;2023-12-20T13:56:47;1.10;;;1.00;;
54835;SDS011;43486;43.574;1.476;2023-12-20T13:59:12;1.80;;;1.00;;
54835;SDS011;43486;43.574;1.476;2023-12-20T14:01:39;1.80;;;1.00;;
54835;SDS011;43486;43.574;1.476;2023-12-20T14:04:04;2.60;;;1.20;;
54835;SDS011;43486;43.574;1.476;2023-12-20T14:06:29;2.80;;;1.50;;
54835;SDS011;43486;43.574;1.476;2023-12-20T14:08:55;1.75;;;1.25;;
54835;SDS011;43486;43.574;1.476;2023-12-20T14:11:20;5.97;;;1.65;;
54835;SDS011;43486;43.574;1.476;2023-12-20T14:13:46;2.97;;;1.10;;
54835;SDS011;43486;43.574;1.476;2023-12-20T14:16:11;2.20;;;1.55;;
54835;SDS011;43486;43.574;1.476;2023-12-20T14:18:37;2.35;;;1.55;;
54835;SDS011;43486;43.574;1.476;2023-12-20T14:21:03;1.52;;;1.02;;
54835;SDS011;43486;43.574;1.476;2023-12-20T14:23:30;3.15;;;1.35;;
54835;SDS011;43486;43.574;1.476;2023-12-20T14:25:56;1.55;;;1.05;;
54835;SDS011;43486;43.574;1.476;2023-12-20T14:28:23;4.00;;;1.38;;
54835;SDS011;43486;43.574;1.476;2023-12-20T14:30:48;1.63;;;0.98;;
54835;SDS011;43486;43.574;1.476;2023-12-20T14:33:14;2.60;;;1.15;;
54835;SDS011;43486;43.574;1.476;2023-12-20T14:35:39;2.25;;;0.93;;
54835;SDS011;43486;43.574;1.476;2023-12-20T14:38:05;4.97;;;1.35;;
54835;SDS011;43486;43.574;1.476;2023-12-20T14:40:31;3.20;;;1.75;;
54835;SDS011;43486;43.574;1.476;2023-12-20T14:42:56;6.10;;;1.20;;
54835;SDS011;43486;43.574;1.476;2023-12-20T14:45:22;2.72;;;1.42;;
54835;SDS011;43486;43.574;1.476;2023-12-20T14:47:47;3.88;;;1.35;;